Database: COMPET-N - COOP - 3PL - 4PL - CNDOOM

WAD: Doom | Doom 2 | TNT | Plutonia | AV | HR | Scythe | MM | MM2 | Requiem | CE
Category: speed | nmare | max | nm100s | tyson | pacifist | fast | respawn | nomo | misc | built | all
Highscore: ALL | IWAD | PWAD | Country | Continent

Remove: wad | map | category | player | all
MapPlayerTimeDateFilenameCommentsDL
MAP12: CraterChris Ratcliff59.002001-12-16es12-059.zip - 282
MAP19: NMEChris Ratcliff1:19.002000-10-31pn19-119.zip - 290
MAP20: Gotcha!Chris Ratcliff1:24.002009-12-05ns20-124.zip - 729
E3M5: Unholy CathedralChris Ratcliff1:57.002001-05-25n3s5-157.zip - 308
MAP28: The SewersChris Ratcliff1:58.002002-09-18ps28-158.zip - 274
MAP17: Processing AreaChris Ratcliff1:58.002001-12-18es17-158.zip - 288
E1M9: Military BaseChris Ratcliff2:00.002000-05-05n1s9-200.zip - 306
E2M6: Halls Of The DamnedChris Ratcliff2:01.002000-08-23n2s6-201.zip - 318
E1M5: Phobos LabChris Ratcliff2:20.002000-03-17n1s5-220.zip - 318
MAP06: Barons LairChris Ratcliff2:29.002001-11-24ps06-229.zip - 300
MAP28: The SewersChris Ratcliff2:30.002001-11-25ps28-230.zip - 288
E2M6: Halls Of The DamnedChris Ratcliff2:31.002000-08-03n2s6-231.zip - 330
E2M5: Command CenterChris Ratcliff2:32.002000-08-15n2s5-232.zip - 280
MAP10: Refueling BaseChris Ratcliff2:36.002009-11-03ns10-236.zip - 298
E2M7: Spawning VatsChris Ratcliff2:47.002001-04-06n2s7-247.zip - 287
E2M5: Command CenterChris Ratcliff2:48.002000-08-04n2s5-248.zip - 297
MAP13: Nukage ProcessingChris Ratcliff2:51.002002-02-11es13-251.zip - 270
MAP10: The MansionChris Ratcliff3:55.002002-04-12mm10s355.zip - 403
MAP32: CaribbeanChris Ratcliff5:41.002001-11-30es32-541.zip - 308
MAP25: Barons DenChris Ratcliff6:59.002001-11-26es25-659.zip - 287
EP3: Inferno (E3M1 - E3M9)Chris Ratcliff18:09.002000-04-08e3ns1809.zip - 304
EP2: The Shores of Hell (E2M1 - E2M9)Chris Ratcliff22:12.002000-08-05e2ns2212.zip - 313
EP1: Episode 1 (MAP01 - MAP10)Chris Ratcliff23:32.002001-04-092332ns01.zip - 284
ALL: Doom 2 Hell On Earth (MAP01 - MAP30)Chris Ratcliff1:11:55.002007-11-0430ns7155.zip - 405
Remove: wad | map | category | player | all